Palena, Chile
Current Conditions -  °F | °C
As of 5:00 PM on Friday 24 Oct 2014 (Local Time) from SCAP Reporting Station
Clear Clear  
Wind Chill: 72°   Ceiling: Unl
Heat Index: 72°   Visibility: NA
Dew Point: 36°   Wind: 10mph
Humidity: 27%   Direction: 240°WSW
Pressure: 30.15"   Gusts: NA
Location:  43.62°S, 71.81°W
Report Text: SCAP 242100Z AUTO 24009KT 200V280 //// // NSC 22/02 Q1021
Loading
Personal Weather Stations






























Interactive Weather Map
Tropical Storm Tracking
New forecast layout! Learn more

10-Day Weather Forecast

Advertisements
Track Severe Weather on mobile